createdAt,value
2019-05-02T00:00:42.274Z,59.20
2019-05-02T00:03:11.395Z,59.50
2019-05-02T00:05:39.908Z,59.90
2019-05-02T00:08:08.579Z,60.00
2019-05-02T00:10:37.486Z,59.90
2019-05-02T00:13:06.272Z,60.00
2019-05-02T00:15:38.240Z,60.10
2019-05-02T00:18:05.235Z,59.70
2019-05-02T00:20:34.002Z,59.80
2019-05-02T00:23:02.417Z,59.60
2019-05-02T00:25:31.022Z,59.40
2019-05-02T00:27:59.654Z,59.50
2019-05-02T00:30:30.049Z,59.90
2019-05-02T00:32:59.545Z,59.80
2019-05-02T00:35:28.201Z,59.80
2019-05-02T00:37:57.351Z,60.20
2019-05-02T00:40:27.773Z,59.80
2019-05-02T00:42:58.243Z,60.00
2019-05-02T00:45:26.583Z,59.90
2019-05-02T00:47:59.702Z,60.30
2019-05-02T00:50:30.128Z,60.10
2019-05-02T00:52:59.038Z,59.70
2019-05-02T00:55:29.055Z,60.30
2019-05-02T00:57:57.859Z,60.60
2019-05-02T01:00:26.452Z,60.70
2019-05-02T01:03:00.030Z,60.80
2019-05-02T01:05:28.818Z,61.00
2019-05-02T01:08:01.155Z,60.80
2019-05-02T01:10:27.754Z,60.70
2019-05-02T01:12:56.173Z,61.00
2019-05-02T01:15:24.605Z,61.00
2019-05-02T01:17:53.087Z,61.00
2019-05-02T01:20:22.319Z,61.50
2019-05-02T01:22:52.608Z,61.50
2019-05-02T01:25:22.475Z,61.50
2019-05-02T01:28:04.097Z,61.70
2019-05-02T01:30:46.397Z,61.90
2019-05-02T01:33:16.529Z,62.40
2019-05-02T01:35:46.866Z,62.30
2019-05-02T01:38:20.055Z,62.30
2019-05-02T01:40:53.174Z,62.40
2019-05-02T01:43:26.367Z,62.50
2019-05-02T01:45:54.980Z,62.80
2019-05-02T01:48:23.863Z,63.20
2019-05-02T01:50:52.618Z,63.10
2019-05-02T01:53:21.197Z,63.20
2019-05-02T01:55:52.052Z,63.20
2019-05-02T01:58:20.706Z,63.50
2019-05-02T02:00:50.181Z,63.70
2019-05-02T02:03:18.612Z,63.80
2019-05-02T02:05:48.040Z,64.00
2019-05-02T02:08:16.825Z,64.10
2019-05-02T02:10:50.745Z,64.00
2019-05-02T02:13:16.868Z,64.30
2019-05-02T02:15:45.666Z,64.40
2019-05-02T02:18:15.797Z,64.60
2019-05-02T02:20:49.130Z,64.70
2019-05-02T02:23:35.901Z,64.70
2019-05-02T02:26:11.835Z,64.70
2019-05-02T02:28:37.556Z,64.60
2019-05-02T02:31:07.951Z,64.90
2019-05-02T02:33:40.874Z,65.30
2019-05-02T02:36:06.990Z,65.20
2019-05-02T02:38:35.603Z,65.50
2019-05-02T02:41:10.341Z,65.40
2019-05-02T02:43:35.156Z,65.70
2019-05-02T02:46:07.631Z,65.80
2019-05-02T02:48:40.620Z,66.00
2019-05-02T02:51:09.733Z,66.00
2019-05-02T02:53:38.187Z,66.10
2019-05-02T02:56:08.487Z,66.20
2019-05-02T02:58:45.584Z,66.30
2019-05-02T03:01:08.238Z,66.30
2019-05-02T03:03:36.699Z,66.20
2019-05-02T03:06:07.594Z,66.50
2019-05-02T03:08:45.295Z,66.60
2019-05-02T03:11:07.435Z,66.70
2019-05-02T03:13:52.847Z,66.80
2019-05-02T03:16:17.511Z,67.00
2019-05-02T03:18:46.356Z,67.20
2019-05-02T03:21:20.818Z,67.10
2019-05-02T03:23:45.521Z,67.10
2019-05-02T03:26:15.620Z,67.30
2019-05-02T03:28:44.964Z,67.10
2019-05-02T03:31:23.441Z,67.20
2019-05-02T03:33:55.105Z,67.30
2019-05-02T03:36:27.911Z,67.30
2019-05-02T03:38:45.590Z,67.50
2019-05-02T03:41:20.534Z,67.60
2019-05-02T03:43:44.729Z,67.70
2019-05-02T03:46:20.426Z,67.90
2019-05-02T03:48:44.141Z,67.90
2019-05-02T03:51:21.455Z,68.00
2019-05-02T03:53:43.320Z,68.10
2019-05-02T03:56:14.169Z,68.10
2019-05-02T03:58:48.318Z,68.20
2019-05-02T04:01:12.511Z,68.30
2019-05-02T04:03:43.777Z,68.50
2019-05-02T04:06:13.988Z,68.20
2019-05-02T04:08:44.262Z,68.10
2019-05-02T04:11:19.089Z,68.30
2019-05-02T04:13:48.477Z,68.30
2019-05-02T04:16:17.865Z,68.40
2019-05-02T04:18:54.592Z,68.40
2019-05-02T04:21:24.274Z,68.50
2019-05-02T04:23:49.480Z,68.50
2019-05-02T04:26:18.939Z,68.60
2019-05-02T04:28:51.645Z,68.90
2019-05-02T04:31:18.378Z,68.90
2019-05-02T04:33:46.834Z,69.00
2019-05-02T04:36:17.847Z,69.00
2019-05-02T04:38:48.743Z,69.20
2019-05-02T04:41:18.848Z,69.20
2019-05-02T04:43:54.546Z,69.30
2019-05-02T04:46:22.176Z,69.50
2019-05-02T04:48:49.879Z,69.50
2019-05-02T04:51:20.462Z,69.50
2019-05-02T04:53:49.813Z,69.60
2019-05-02T04:56:18.806Z,69.70
2019-05-02T04:58:49.489Z,69.80
2019-05-02T05:01:20.976Z,69.80
2019-05-02T05:03:57.002Z,69.90
2019-05-02T05:06:19.058Z,69.80
2019-05-02T05:08:49.734Z,69.80
2019-05-02T05:11:24.405Z,69.80
2019-05-02T05:13:52.389Z,69.80
2019-05-02T05:16:18.863Z,69.80
2019-05-02T05:18:49.306Z,69.90
2019-05-02T05:21:17.992Z,70.00
2019-05-02T05:24:01.163Z,70.00
2019-05-02T05:26:29.061Z,70.20
2019-05-02T05:28:58.360Z,70.30
2019-05-02T05:31:29.213Z,70.30
2019-05-02T05:33:59.036Z,70.60
2019-05-02T05:36:32.670Z,70.50
2019-05-02T05:38:58.402Z,70.80
2019-05-02T05:41:27.767Z,70.80
2019-05-02T05:43:57.394Z,70.90
2019-05-02T05:46:27.995Z,70.90
2019-05-02T05:48:58.251Z,70.90
2019-05-02T05:51:27.734Z,70.90
2019-05-02T05:53:59.047Z,70.80
2019-05-02T05:56:27.925Z,70.80
2019-05-02T05:58:58.940Z,70.70
2019-05-02T06:01:34.063Z,70.80
2019-05-02T06:03:58.183Z,70.70
2019-05-02T06:06:27.913Z,70.50
2019-05-02T06:08:56.340Z,70.40
2019-05-02T06:11:24.823Z,70.40
2019-05-02T06:13:53.352Z,70.60
2019-05-02T06:16:21.763Z,70.80
2019-05-02T06:18:50.324Z,70.70
2019-05-02T06:21:18.953Z,70.60
2019-05-02T06:23:47.685Z,70.70
2019-05-02T06:26:16.556Z,70.60
2019-05-02T06:28:45.350Z,70.20
2019-05-02T06:31:16.703Z,70.30
2019-05-02T06:33:44.015Z,70.10
2019-05-02T06:36:12.462Z,70.10
2019-05-02T06:38:40.890Z,69.90
2019-05-02T06:41:09.491Z,69.70
2019-05-02T06:43:41.134Z,69.80
2019-05-02T06:46:16.105Z,69.40
2019-05-02T06:48:39.066Z,69.30
2019-05-02T06:51:10.891Z,68.70
2019-05-02T06:53:41.277Z,68.50
2019-05-02T06:56:12.707Z,68.40
2019-05-02T06:58:41.873Z,68.40
2019-05-02T07:01:08.846Z,68.70
2019-05-02T07:03:41.451Z,68.40
2019-05-02T07:06:07.919Z,68.70
2019-05-02T07:08:38.804Z,68.60
2019-05-02T07:11:07.386Z,68.30
2019-05-02T07:13:36.208Z,68.50
2019-05-02T07:16:10.343Z,68.60
2019-05-02T07:18:47.560Z,67.90
2019-05-02T07:21:17.849Z,67.40
2019-05-02T07:23:48.747Z,67.00
2019-05-02T07:26:21.346Z,67.30
2019-05-02T07:28:47.591Z,67.20
2019-05-02T07:31:16.773Z,66.60
2019-05-02T07:33:45.352Z,66.20
2019-05-02T07:36:13.763Z,65.90
2019-05-02T07:38:43.261Z,65.50
2019-05-02T07:41:12.063Z,65.00
2019-05-02T07:43:40.552Z,64.60
2019-05-02T07:46:09.350Z,64.50
2019-05-02T07:48:37.814Z,64.30
2019-05-02T07:51:06.292Z,64.30
2019-05-02T07:53:34.913Z,63.90
2019-05-02T07:56:04.925Z,63.30
2019-05-02T07:58:33.352Z,63.10
2019-05-02T08:01:02.107Z,63.50
2019-05-02T08:03:33.586Z,63.40
2019-05-02T08:06:01.193Z,63.10
2019-05-02T08:08:31.648Z,63.20
2019-05-02T08:11:02.880Z,63.00
2019-05-02T08:13:31.548Z,62.90
2019-05-02T08:16:00.111Z,63.00
2019-05-02T08:18:30.407Z,62.20
2019-05-02T08:20:58.806Z,61.70
2019-05-02T08:23:27.865Z,61.70
2019-05-02T08:25:56.882Z,61.70
2019-05-02T08:28:29.816Z,62.00
2019-05-02T08:30:59.583Z,61.40
2019-05-02T08:33:29.254Z,61.50
2019-05-02T08:35:58.409Z,61.20
2019-05-02T08:38:26.851Z,61.30
2019-05-02T08:40:55.664Z,61.70
2019-05-02T08:43:24.100Z,61.30
2019-05-02T08:45:52.834Z,61.50
2019-05-02T08:48:22.769Z,61.60
2019-05-02T08:50:51.425Z,61.40
2019-05-02T08:53:20.471Z,61.50
2019-05-02T08:55:50.385Z,61.80
2019-05-02T08:58:18.985Z,61.50
2019-05-02T09:00:47.668Z,60.40
2019-05-02T09:03:16.426Z,60.60
2019-05-02T09:05:46.089Z,60.00
2019-05-02T09:08:16.608Z,59.70
2019-05-02T09:10:46.709Z,59.90
2019-05-02T09:13:23.609Z,59.40
2019-05-02T09:15:50.992Z,58.20
2019-05-02T09:18:16.552Z,57.80
2019-05-02T09:20:46.908Z,56.50
2019-05-02T09:23:15.142Z,56.30
2019-05-02T09:25:43.603Z,56.00
2019-05-02T09:28:12.613Z,55.40
2019-05-02T09:30:41.882Z,55.10
2019-05-02T09:33:11.761Z,54.30
2019-05-02T09:35:42.219Z,53.30
2019-05-02T09:38:12.929Z,52.10
2019-05-02T09:40:42.596Z,50.90
2019-05-02T09:43:12.205Z,49.20
2019-05-02T09:45:43.210Z,48.60
2019-05-02T09:48:12.613Z,48.90
2019-05-02T09:50:42.194Z,48.40
2019-05-02T09:53:13.217Z,47.40
2019-05-02T09:55:43.809Z,47.50
2019-05-02T09:58:19.483Z,47.90
2019-05-02T10:00:55.156Z,48.70
2019-05-02T10:03:24.588Z,48.50
2019-05-02T10:05:53.207Z,48.40
2019-05-02T10:08:23.029Z,48.50
2019-05-02T10:10:52.627Z,48.70
2019-05-02T10:13:22.877Z,49.20
2019-05-02T10:15:52.776Z,49.80
2019-05-02T10:18:28.292Z,49.00
2019-05-02T10:20:52.527Z,48.70
2019-05-02T10:23:23.230Z,49.80
2019-05-02T10:25:52.107Z,50.60
2019-05-02T10:28:22.675Z,49.70
2019-05-02T10:30:52.632Z,49.60
2019-05-02T10:33:22.556Z,50.10
2019-05-02T10:35:52.613Z,50.50
2019-05-02T10:38:22.717Z,51.70
2019-05-02T10:40:54.585Z,51.60
2019-05-02T10:43:22.275Z,51.30
2019-05-02T10:45:57.774Z,51.00
2019-05-02T10:48:28.759Z,50.60
2019-05-02T10:51:15.133Z,51.30
2019-05-02T10:53:47.019Z,52.10
2019-05-02T10:56:13.959Z,51.50
2019-05-02T10:58:42.681Z,51.10
2019-05-02T11:01:13.052Z,50.20
2019-05-02T11:03:47.359Z,50.60
2019-05-02T11:06:14.060Z,49.70
2019-05-02T11:08:45.939Z,49.70
2019-05-02T11:11:13.679Z,50.20
2019-05-02T11:14:05.691Z,49.90
2019-05-02T11:16:39.837Z,50.30
2019-05-02T11:19:13.245Z,50.10
2019-05-02T11:21:53.561Z,49.60
2019-05-02T11:24:14.232Z,49.80
2019-05-02T11:26:42.984Z,49.10
2019-05-02T11:29:12.106Z,48.70
2019-05-02T11:31:42.774Z,47.90
2019-05-02T11:34:12.461Z,48.30
2019-05-02T11:36:42.054Z,48.70
2019-05-02T11:39:19.967Z,49.70
2019-05-02T11:41:42.288Z,48.70
2019-05-02T11:44:12.121Z,48.60
2019-05-02T11:46:43.057Z,49.10
2019-05-02T11:49:12.273Z,48.50
2019-05-02T11:51:42.163Z,47.90
2019-05-02T11:54:13.015Z,47.80
2019-05-02T11:56:48.868Z,48.20
2019-05-02T11:59:14.973Z,48.80
2019-05-02T12:01:56.801Z,48.60
2019-05-02T12:04:17.032Z,47.90
2019-05-02T12:06:49.962Z,47.80
2019-05-02T12:09:16.927Z,47.80
2019-05-02T12:11:47.336Z,47.30
2019-05-02T12:14:15.870Z,46.80
2019-05-02T12:16:44.318Z,46.50
2019-05-02T12:19:14.932Z,46.70
2019-05-02T12:21:46.029Z,47.10
2019-05-02T12:24:14.467Z,47.20
2019-05-02T12:26:43.032Z,48.30
2019-05-02T12:29:12.212Z,47.30
2019-05-02T12:31:42.513Z,46.50
2019-05-02T12:34:12.022Z,46.70
2019-05-02T12:36:42.627Z,46.00
2019-05-02T12:39:12.597Z,46.20
2019-05-02T12:41:42.253Z,47.60
2019-05-02T12:44:11.848Z,45.80
2019-05-02T12:46:42.127Z,45.80
2019-05-02T12:49:23.954Z,45.80
2019-05-02T12:51:42.888Z,45.90
2019-05-02T12:54:12.342Z,45.20
2019-05-02T12:56:41.880Z,44.40
2019-05-02T12:59:11.873Z,45.10
2019-05-02T13:01:42.153Z,45.20
2019-05-02T13:04:12.811Z,45.60
2019-05-02T13:06:42.121Z,45.80
2019-05-02T13:09:12.757Z,45.10
2019-05-02T13:11:49.914Z,44.40
2019-05-02T13:14:20.144Z,43.80
2019-05-02T13:16:53.558Z,44.40
2019-05-02T13:19:19.814Z,44.40
2019-05-02T13:21:58.299Z,44.60
2019-05-02T13:24:32.556Z,43.90
2019-05-02T13:27:03.985Z,45.40
2019-05-02T13:29:32.192Z,43.80
2019-05-02T13:32:08.781Z,43.70
2019-05-02T13:34:37.841Z,44.20
2019-05-02T13:37:09.244Z,43.20
2019-05-02T13:39:42.562Z,44.30
2019-05-02T13:42:12.511Z,43.70
2019-05-02T13:44:56.050Z,44.10
2019-05-02T13:47:26.393Z,44.50
2019-05-02T13:49:59.098Z,43.40
2019-05-02T13:52:26.789Z,43.60
2019-05-02T13:54:55.680Z,42.70
2019-05-02T13:57:24.876Z,42.70
2019-05-02T13:59:53.316Z,42.10
2019-05-02T14:02:37.032Z,42.50
2019-05-02T14:05:08.070Z,43.80
2019-05-02T14:07:36.885Z,42.80
2019-05-02T14:10:11.963Z,42.20
2019-05-02T14:12:45.275Z,42.40
2019-05-02T14:15:16.581Z,42.60
2019-05-02T14:17:45.073Z,41.20
2019-05-02T14:20:14.026Z,41.90
2019-05-02T14:22:42.553Z,41.70
2019-05-02T14:25:12.304Z,41.10
2019-05-02T14:27:42.337Z,40.60
2019-05-02T14:30:12.115Z,41.30
2019-05-02T14:32:42.345Z,39.30
2019-05-02T14:35:23.249Z,39.60
2019-05-02T14:37:50.401Z,40.30
2019-05-02T14:40:22.991Z,41.00
2019-05-02T14:42:52.914Z,41.10
2019-05-02T14:45:30.820Z,41.00
2019-05-02T14:47:57.545Z,41.90
2019-05-02T14:50:26.389Z,42.30
2019-05-02T14:52:53.453Z,42.80
2019-05-02T14:55:25.652Z,42.40
2019-05-02T14:57:57.037Z,42.60
2019-05-02T15:00:25.555Z,42.90
2019-05-02T15:02:53.996Z,43.40
2019-05-02T15:05:27.954Z,43.70
2019-05-02T15:07:56.966Z,42.80
2019-05-02T15:10:23.428Z,43.10
2019-05-02T15:12:59.526Z,42.60
2019-05-02T15:15:23.122Z,43.40
2019-05-02T15:17:53.056Z,42.80
2019-05-02T15:20:23.574Z,42.60
2019-05-02T15:22:52.391Z,42.80
2019-05-02T15:25:21.757Z,43.20
2019-05-02T15:27:58.492Z,43.10
2019-05-02T15:30:20.801Z,43.30
2019-05-02T15:32:52.110Z,42.10
2019-05-02T15:35:36.011Z,41.60
2019-05-02T15:38:06.734Z,42.00
2019-05-02T15:40:43.507Z,42.20
2019-05-02T15:43:09.427Z,42.80
2019-05-02T15:45:36.607Z,42.80
2019-05-02T15:48:06.728Z,43.00
2019-05-02T15:50:35.161Z,42.90
2019-05-02T15:53:10.042Z,43.00
2019-05-02T15:55:39.519Z,43.00
2019-05-02T15:58:17.147Z,43.20
2019-05-02T16:00:48.156Z,43.10
2019-05-02T16:03:16.867Z,43.20
2019-05-02T16:05:45.685Z,43.50
2019-05-02T16:08:15.744Z,43.50
2019-05-02T16:10:44.172Z,43.50
2019-05-02T16:13:17.137Z,44.50
2019-05-02T16:15:44.072Z,44.80
2019-05-02T16:18:13.131Z,45.10
2019-05-02T16:20:47.347Z,44.90
2019-05-02T16:23:13.790Z,45.00
2019-05-02T16:25:42.913Z,45.60
2019-05-02T16:28:12.751Z,45.20
2019-05-02T16:30:47.318Z,45.00
2019-05-02T16:33:17.521Z,44.90
2019-05-02T16:35:46.265Z,44.60
2019-05-02T16:38:14.386Z,44.60
2019-05-02T16:40:43.056Z,44.40
2019-05-02T16:43:12.230Z,44.20
2019-05-02T16:45:41.688Z,44.20
2019-05-02T16:48:12.047Z,44.40
2019-05-02T16:50:42.075Z,44.80
2019-05-02T16:53:11.701Z,44.60
2019-05-02T16:55:43.442Z,44.40
2019-05-02T16:58:11.940Z,44.80
2019-05-02T17:00:44.023Z,44.90
2019-05-02T17:03:12.660Z,45.30
2019-05-02T17:05:44.293Z,45.40
2019-05-02T17:08:19.898Z,45.50
2019-05-02T17:10:56.887Z,45.30
2019-05-02T17:13:27.443Z,44.00
2019-05-02T17:15:54.491Z,44.00
2019-05-02T17:18:22.987Z,44.00
2019-05-02T17:20:53.313Z,44.20
2019-05-02T17:23:22.298Z,44.10
2019-05-02T17:25:52.196Z,44.20
2019-05-02T17:28:22.309Z,44.20
2019-05-02T17:30:52.452Z,44.30
2019-05-02T17:33:21.843Z,44.60
2019-05-02T17:35:54.207Z,44.40
2019-05-02T17:38:27.319Z,44.10
2019-05-02T17:40:54.486Z,44.30
2019-05-02T17:43:23.386Z,44.30
2019-05-02T17:45:51.857Z,44.50
2019-05-02T17:48:21.019Z,44.60
2019-05-02T17:50:59.072Z,44.70
2019-05-02T17:53:25.552Z,44.80
2019-05-02T17:55:54.349Z,44.90
2019-05-02T17:58:23.118Z,45.50
2019-05-02T18:00:57.008Z,44.90
2019-05-02T18:03:30.741Z,44.80
2019-05-02T18:05:54.043Z,44.70
2019-05-02T18:08:22.554Z,44.00
2019-05-02T18:10:58.516Z,43.50
2019-05-02T18:13:22.808Z,43.60
2019-05-02T18:15:53.444Z,43.70
2019-05-02T18:18:22.243Z,44.20
2019-05-02T18:20:52.715Z,44.00
2019-05-02T18:23:25.834Z,43.90
2019-05-02T18:25:52.569Z,43.90
2019-05-02T18:28:24.644Z,44.40
2019-05-02T18:30:52.457Z,44.30
2019-05-02T18:33:22.546Z,44.10
2019-05-02T18:35:52.639Z,44.50
2019-05-02T18:38:22.421Z,44.80
2019-05-02T18:40:52.126Z,44.70
2019-05-02T18:43:22.238Z,44.70
2019-05-02T18:45:52.099Z,44.70
2019-05-02T18:48:21.887Z,44.40
2019-05-02T18:50:52.425Z,44.10
2019-05-02T18:53:24.298Z,44.20
2019-05-02T18:55:51.858Z,44.50
2019-05-02T18:58:22.578Z,44.40
2019-05-02T19:00:51.998Z,44.60
2019-05-02T19:03:23.022Z,45.30
2019-05-02T19:05:56.947Z,47.10
2019-05-02T19:08:31.163Z,49.40
2019-05-02T19:11:04.454Z,49.60
2019-05-02T19:13:24.275Z,51.00
2019-05-02T19:15:53.426Z,51.90
2019-05-02T19:18:22.681Z,52.50
2019-05-02T19:20:57.599Z,52.90
2019-05-02T19:23:25.443Z,53.80
2019-05-02T19:25:54.446Z,54.20
2019-05-02T19:28:29.183Z,54.40
2019-05-02T19:31:05.111Z,54.70
2019-05-02T19:33:29.288Z,54.70
2019-05-02T19:35:57.949Z,55.00
2019-05-02T19:38:26.481Z,55.40
2019-05-02T19:40:58.203Z,55.70
2019-05-02T19:43:26.740Z,56.10
2019-05-02T19:45:55.232Z,56.30
2019-05-02T19:48:27.365Z,56.80
2019-05-02T19:50:54.538Z,57.10
2019-05-02T19:53:23.361Z,57.30
2019-05-02T19:55:52.219Z,57.60
2019-05-02T19:58:22.548Z,57.80
2019-05-02T20:00:52.600Z,57.90
2019-05-02T20:03:22.018Z,58.20
2019-05-02T20:05:51.893Z,58.20
2019-05-02T20:08:24.362Z,58.40
2019-05-02T20:10:56.755Z,58.40
2019-05-02T20:13:28.052Z,58.60
2019-05-02T20:15:57.134Z,58.80
2019-05-02T20:18:23.924Z,58.80
2019-05-02T20:20:58.668Z,58.80
2019-05-02T20:23:31.643Z,58.60
2019-05-02T20:25:58.217Z,58.70
2019-05-02T20:28:26.635Z,58.80
2019-05-02T20:30:55.039Z,58.90
2019-05-02T20:33:23.516Z,59.10
2019-05-02T20:35:52.807Z,59.30
2019-05-02T20:38:21.927Z,59.80
2019-05-02T20:40:52.193Z,60.40
2019-05-02T20:43:22.597Z,60.90
2019-05-02T20:45:52.729Z,61.00
2019-05-02T20:48:22.719Z,61.30
2019-05-02T20:50:52.073Z,61.50
2019-05-02T20:53:30.258Z,61.70
2019-05-02T20:55:52.355Z,61.80
2019-05-02T20:58:21.989Z,61.90
2019-05-02T21:01:05.034Z,62.10
2019-05-02T21:03:21.018Z,62.40
2019-05-02T21:05:52.060Z,62.40
2019-05-02T21:08:25.579Z,62.50
2019-05-02T21:10:55.813Z,62.60
2019-05-02T21:13:24.875Z,62.70
2019-05-02T21:15:53.702Z,62.70
2019-05-02T21:18:22.489Z,62.80
2019-05-02T21:20:52.613Z,63.00
2019-05-02T21:23:21.939Z,63.20
2019-05-02T21:25:52.371Z,63.40
2019-05-02T21:28:22.706Z,63.40
2019-05-02T21:30:52.414Z,63.50
2019-05-02T21:33:36.238Z,63.40
2019-05-02T21:36:05.735Z,63.50
2019-05-02T21:38:34.792Z,63.70
2019-05-02T21:41:04.354Z,63.70
2019-05-02T21:43:32.744Z,63.70
2019-05-02T21:46:02.441Z,63.80
2019-05-02T21:48:32.645Z,63.80
2019-05-02T21:51:05.845Z,63.90
2019-05-02T21:53:36.472Z,63.90
2019-05-02T21:56:09.672Z,63.90
2019-05-02T21:58:38.801Z,63.90
2019-05-02T22:01:13.314Z,63.90
2019-05-02T22:03:42.486Z,63.80
2019-05-02T22:06:12.230Z,63.80
2019-05-02T22:08:41.762Z,63.90
2019-05-02T22:11:11.994Z,63.70
2019-05-02T22:13:42.350Z,63.50
2019-05-02T22:16:12.769Z,63.30
2019-05-02T22:18:42.708Z,63.50
2019-05-02T22:21:12.282Z,63.50
2019-05-02T22:23:42.528Z,63.20
2019-05-02T22:26:12.709Z,62.90
2019-05-02T22:28:41.481Z,62.80
2019-05-02T22:31:12.144Z,62.90
2019-05-02T22:33:42.127Z,63.00
2019-05-02T22:36:12.364Z,63.10
2019-05-02T22:38:42.878Z,63.00
2019-05-02T22:41:12.554Z,63.20
2019-05-02T22:43:42.131Z,63.10
2019-05-02T22:46:14.057Z,63.40
2019-05-02T22:48:43.701Z,63.50
2019-05-02T22:51:12.138Z,63.50
2019-05-02T22:53:41.688Z,63.70
2019-05-02T22:56:11.839Z,63.80
2019-05-02T22:58:42.024Z,63.80
2019-05-02T23:01:10.632Z,63.90
2019-05-02T23:03:39.300Z,63.90
2019-05-02T23:06:07.697Z,63.90
2019-05-02T23:08:36.105Z,63.90
2019-05-02T23:11:04.670Z,64.20
2019-05-02T23:13:33.955Z,64.20
2019-05-02T23:16:02.922Z,64.40
2019-05-02T23:18:32.016Z,64.40
2019-05-02T23:21:02.151Z,64.60
2019-05-02T23:23:32.761Z,64.80
2019-05-02T23:26:12.846Z,64.90
2019-05-02T23:28:42.991Z,64.80
2019-05-02T23:31:13.998Z,64.70
2019-05-02T23:34:01.844Z,64.70
2019-05-02T23:36:32.794Z,64.80
2019-05-02T23:39:02.326Z,64.80
2019-05-02T23:41:32.701Z,64.80
2019-05-02T23:44:02.672Z,64.80
2019-05-02T23:46:31.301Z,64.90
2019-05-02T23:49:01.869Z,65.00
2019-05-02T23:51:32.112Z,65.00
2019-05-02T23:54:02.109Z,65.20
2019-05-02T23:56:32.530Z,65.40
2019-05-02T23:59:02.744Z,65.50
